sensor_id;sensor_type;location;lat;lon;timestamp;pressure;altitude;pressure_sealevel;temperature;humidity
38806;BME280;25635;51.146;17.162;2023-11-21T00:01:35;99271.03;;;7.86;100.00
38806;BME280;25635;51.146;17.162;2023-11-21T00:04:02;99272.05;;;7.87;100.00
38806;BME280;25635;51.146;17.162;2023-11-21T00:06:28;99273.42;;;7.88;100.00
38806;BME280;25635;51.146;17.162;2023-11-21T00:08:56;99276.38;;;7.89;100.00
38806;BME280;25635;51.146;17.162;2023-11-21T00:11:22;99280.55;;;7.89;100.00
38806;BME280;25635;51.146;17.162;2023-11-21T00:13:48;99278.10;;;7.90;100.00
38806;BME280;25635;51.146;17.162;2023-11-21T00:16:14;99281.21;;;7.90;100.00
38806;BME280;25635;51.146;17.162;2023-11-21T00:18:40;99281.57;;;7.90;100.00
38806;BME280;25635;51.146;17.162;2023-11-21T00:21:06;99282.10;;;7.89;100.00
38806;BME280;25635;51.146;17.162;2023-11-21T00:23:32;99284.88;;;7.89;100.00
38806;BME280;25635;51.146;17.162;2023-11-21T00:25:58;99286.09;;;7.88;100.00
38806;BME280;25635;51.146;17.162;2023-11-21T00:28:25;99288.91;;;7.87;100.00
38806;BME280;25635;51.146;17.162;2023-11-21T00:30:52;99290.45;;;7.88;100.00
38806;BME280;25635;51.146;17.162;2023-11-21T00:33:18;99294.81;;;7.86;100.00
38806;BME280;25635;51.146;17.162;2023-11-21T00:35:44;99295.02;;;7.84;100.00
38806;BME280;25635;51.146;17.162;2023-11-21T00:38:09;99295.89;;;7.83;100.00
38806;BME280;25635;51.146;17.162;2023-11-21T00:40:36;99296.61;;;7.81;100.00
38806;BME280;25635;51.146;17.162;2023-11-21T00:43:03;99299.58;;;7.79;100.00
38806;BME280;25635;51.146;17.162;2023-11-21T00:45:29;99297.69;;;7.77;100.00
38806;BME280;25635;51.146;17.162;2023-11-21T00:47:55;99299.95;;;7.75;100.00
38806;BME280;25635;51.146;17.162;2023-11-21T00:50:23;99298.61;;;7.73;100.00
38806;BME280;25635;51.146;17.162;2023-11-21T00:52:49;99297.25;;;7.69;100.00
38806;BME280;25635;51.146;17.162;2023-11-21T00:55:17;99298.48;;;7.67;100.00
38806;BME280;25635;51.146;17.162;2023-11-21T00:57:44;99300.92;;;7.66;100.00
38806;BME280;25635;51.146;17.162;2023-11-21T01:00:10;99298.00;;;7.64;100.00
38806;BME280;25635;51.146;17.162;2023-11-21T01:02:45;99295.23;;;7.63;100.00
38806;BME280;25635;51.146;17.162;2023-11-21T01:05:12;99296.14;;;7.60;100.00
38806;BME280;25635;51.146;17.162;2023-11-21T01:07:38;99296.15;;;7.60;100.00
38806;BME280;25635;51.146;17.162;2023-11-21T01:10:04;99297.52;;;7.59;100.00
38806;BME280;25635;51.146;17.162;2023-11-21T01:12:37;99298.93;;;7.58;100.00
38806;BME280;25635;51.146;17.162;2023-11-21T01:15:04;99300.50;;;7.57;100.00
38806;BME280;25635;51.146;17.162;2023-11-21T01:17:33;99299.48;;;7.56;100.00
38806;BME280;25635;51.146;17.162;2023-11-21T01:20:02;99300.16;;;7.55;100.00
38806;BME280;25635;51.146;17.162;2023-11-21T01:22:29;99302.23;;;7.57;100.00
38806;BME280;25635;51.146;17.162;2023-11-21T01:24:55;99300.86;;;7.57;100.00
38806;BME280;25635;51.146;17.162;2023-11-21T01:27:21;99299.80;;;7.57;100.00
38806;BME280;25635;51.146;17.162;2023-11-21T01:29:48;99303.45;;;7.57;100.00
38806;BME280;25635;51.146;17.162;2023-11-21T01:32:14;99306.74;;;7.58;100.00
38806;BME280;25635;51.146;17.162;2023-11-21T01:34:40;99310.04;;;7.57;100.00
38806;BME280;25635;51.146;17.162;2023-11-21T01:37:06;99305.52;;;7.58;100.00
38806;BME280;25635;51.146;17.162;2023-11-21T01:39:32;99306.73;;;7.58;100.00
38806;BME280;25635;51.146;17.162;2023-11-21T01:41:58;99312.80;;;7.58;100.00
38806;BME280;25635;51.146;17.162;2023-11-21T01:44:24;99308.30;;;7.57;100.00
38806;BME280;25635;51.146;17.162;2023-11-21T01:46:51;99306.41;;;7.55;100.00
38806;BME280;25635;51.146;17.162;2023-11-21T01:49:17;99311.10;;;7.55;100.00
38806;BME280;25635;51.146;17.162;2023-11-21T01:51:47;99311.80;;;7.55;100.00
38806;BME280;25635;51.146;17.162;2023-11-21T01:54:16;99315.27;;;7.54;100.00
38806;BME280;25635;51.146;17.162;2023-11-21T01:56:46;99312.70;;;7.51;100.00
38806;BME280;25635;51.146;17.162;2023-11-21T01:59:17;99314.27;;;7.50;100.00
38806;BME280;25635;51.146;17.162;2023-11-21T02:01:44;99314.45;;;7.49;100.00
38806;BME280;25635;51.146;17.162;2023-11-21T02:04:10;99313.05;;;7.50;100.00
38806;BME280;25635;51.146;17.162;2023-11-21T02:06:36;99314.45;;;7.49;100.00
38806;BME280;25635;51.146;17.162;2023-11-21T02:09:02;99316.70;;;7.48;100.00
38806;BME280;25635;51.146;17.162;2023-11-21T02:11:30;99315.84;;;7.48;100.00
38806;BME280;25635;51.146;17.162;2023-11-21T02:13:59;99316.18;;;7.49;100.00
38806;BME280;25635;51.146;17.162;2023-11-21T02:16:25;99316.35;;;7.49;100.00
38806;BME280;25635;51.146;17.162;2023-11-21T02:18:51;99316.53;;;7.48;100.00
38806;BME280;25635;51.146;17.162;2023-11-21T02:21:18;99318.98;;;7.47;100.00
38806;BME280;25635;51.146;17.162;2023-11-21T02:23:45;99320.55;;;7.47;100.00
38806;BME280;25635;51.146;17.162;2023-11-21T02:26:13;99321.08;;;7.45;100.00
38806;BME280;25635;51.146;17.162;2023-11-21T02:28:40;99318.98;;;7.46;100.00
38806;BME280;25635;51.146;17.162;2023-11-21T02:31:06;99320.21;;;7.46;100.00
38806;BME280;25635;51.146;17.162;2023-11-21T02:33:33;99318.46;;;7.46;100.00
38806;BME280;25635;51.146;17.162;2023-11-21T02:36:00;99316.55;;;7.47;100.00
38806;BME280;25635;51.146;17.162;2023-11-21T02:38:27;99317.42;;;7.46;100.00
38806;BME280;25635;51.146;17.162;2023-11-21T02:40:53;99322.13;;;7.45;100.00
38806;BME280;25635;51.146;17.162;2023-11-21T02:43:19;99321.43;;;7.43;100.00
38806;BME280;25635;51.146;17.162;2023-11-21T02:45:45;99323.36;;;7.42;100.00
38806;BME280;25635;51.146;17.162;2023-11-21T02:48:11;99323.54;;;7.42;100.00
38806;BME280;25635;51.146;17.162;2023-11-21T02:50:37;99324.39;;;7.43;100.00
38806;BME280;25635;51.146;17.162;2023-11-21T02:53:04;99324.56;;;7.43;100.00
38806;BME280;25635;51.146;17.162;2023-11-21T02:55:31;99328.20;;;7.42;100.00
38806;BME280;25635;51.146;17.162;2023-11-21T02:58:01;99326.14;;;7.42;100.00
38806;BME280;25635;51.146;17.162;2023-11-21T03:00:27;99327.52;;;7.42;100.00
38806;BME280;25635;51.146;17.162;2023-11-21T03:02:55;99329.42;;;7.43;100.00
38806;BME280;25635;51.146;17.162;2023-11-21T03:05:21;99327.86;;;7.43;100.00
38806;BME280;25635;51.146;17.162;2023-11-21T03:07:47;99327.33;;;7.45;100.00
38806;BME280;25635;51.146;17.162;2023-11-21T03:10:13;99326.61;;;7.46;100.00
38806;BME280;25635;51.146;17.162;2023-11-21T03:12:39;99329.91;;;7.46;100.00
38806;BME280;25635;51.146;17.162;2023-11-21T03:15:06;99330.93;;;7.48;100.00
38806;BME280;25635;51.146;17.162;2023-11-21T03:17:33;99331.08;;;7.51;100.00
38806;BME280;25635;51.146;17.162;2023-11-21T03:20:03;99327.43;;;7.52;100.00
38806;BME280;25635;51.146;17.162;2023-11-21T03:22:29;99325.37;;;7.49;100.00
38806;BME280;25635;51.146;17.162;2023-11-21T03:24:55;99327.80;;;7.50;100.00
38806;BME280;25635;51.146;17.162;2023-11-21T03:27:21;99328.67;;;7.49;100.00
38806;BME280;25635;51.146;17.162;2023-11-21T03:29:48;99333.19;;;7.48;100.00
38806;BME280;25635;51.146;17.162;2023-11-21T03:32:15;99329.91;;;7.47;100.00
38806;BME280;25635;51.146;17.162;2023-11-21T03:34:58;99331.30;;;7.47;100.00
38806;BME280;25635;51.146;17.162;2023-11-21T03:37:24;99331.81;;;7.46;100.00
38806;BME280;25635;51.146;17.162;2023-11-21T03:39:51;99335.13;;;7.46;100.00
38806;BME280;25635;51.146;17.162;2023-11-21T03:42:17;99338.41;;;7.46;100.00
38806;BME280;25635;51.146;17.162;2023-11-21T03:44:43;99338.41;;;7.46;100.00
38806;BME280;25635;51.146;17.162;2023-11-21T03:47:09;99337.91;;;7.44;100.00
38806;BME280;25635;51.146;17.162;2023-11-21T03:49:35;99337.92;;;7.42;100.00
38806;BME280;25635;51.146;17.162;2023-11-21T03:52:01;99340.20;;;7.40;100.00
38806;BME280;25635;51.146;17.162;2023-11-21T03:54:28;99339.33;;;7.40;100.00
38806;BME280;25635;51.146;17.162;2023-11-21T03:56:54;99341.77;;;7.39;100.00
38806;BME280;25635;51.146;17.162;2023-11-21T03:59:20;99344.36;;;7.40;100.00
38806;BME280;25635;51.146;17.162;2023-11-21T04:01:46;99345.41;;;7.39;100.00
38806;BME280;25635;51.146;17.162;2023-11-21T04:04:12;99348.71;;;7.39;100.00
38806;BME280;25635;51.146;17.162;2023-11-21T04:06:38;99350.61;;;7.40;100.00
38806;BME280;25635;51.146;17.162;2023-11-21T04:09:04;99349.05;;;7.40;100.00
38806;BME280;25635;51.146;17.162;2023-11-21T04:11:30;99347.83;;;7.41;100.00
38806;BME280;25635;51.146;17.162;2023-11-21T04:13:56;99349.02;;;7.42;100.00
38806;BME280;25635;51.146;17.162;2023-11-21T04:16:22;99349.38;;;7.43;100.00
38806;BME280;25635;51.146;17.162;2023-11-21T04:18:48;99351.27;;;7.43;100.00
38806;BME280;25635;51.146;17.162;2023-11-21T04:21:15;99351.80;;;7.42;100.00
38806;BME280;25635;51.146;17.162;2023-11-21T04:23:42;99350.23;;;7.43;100.00
38806;BME280;25635;51.146;17.162;2023-11-21T04:26:08;99351.60;;;7.44;100.00
38806;BME280;25635;51.146;17.162;2023-11-21T04:28:34;99354.70;;;7.46;100.00
38806;BME280;25635;51.146;17.162;2023-11-21T04:31:00;99357.48;;;7.45;100.00
38806;BME280;25635;51.146;17.162;2023-11-21T04:33:26;99359.94;;;7.45;100.00
38806;BME280;25635;51.146;17.162;2023-11-21T04:35:52;99364.09;;;7.44;100.00
38806;BME280;25635;51.146;17.162;2023-11-21T04:38:19;99365.84;;;7.43;100.00
38806;BME280;25635;51.146;17.162;2023-11-21T04:40:45;99366.36;;;7.44;100.00
38806;BME280;25635;51.146;17.162;2023-11-21T04:43:11;99366.88;;;7.44;100.00
38806;BME280;25635;51.146;17.162;2023-11-21T04:45:37;99368.42;;;7.44;100.00
38806;BME280;25635;51.146;17.162;2023-11-21T04:48:04;99364.61;;;7.44;100.00
38806;BME280;25635;51.146;17.162;2023-11-21T04:50:31;99366.52;;;7.45;100.00
38806;BME280;25635;51.146;17.162;2023-11-21T04:52:57;99369.13;;;7.45;100.00
38806;BME280;25635;51.146;17.162;2023-11-21T04:55:23;99371.89;;;7.44;100.00
38806;BME280;25635;51.146;17.162;2023-11-21T04:57:49;99378.48;;;7.45;100.00
38806;BME280;25635;51.146;17.162;2023-11-21T05:00:15;99379.37;;;7.45;100.00
38806;BME280;25635;51.146;17.162;2023-11-21T05:02:41;99384.04;;;7.44;100.00
38806;BME280;25635;51.146;17.162;2023-11-21T05:05:08;99385.08;;;7.44;100.00
38806;BME280;25635;51.146;17.162;2023-11-21T05:07:36;99389.95;;;7.43;100.00
38806;BME280;25635;51.146;17.162;2023-11-21T05:10:04;99388.73;;;7.44;100.00
38806;BME280;25635;51.146;17.162;2023-11-21T05:12:33;99387.02;;;7.42;100.00
38806;BME280;25635;51.146;17.162;2023-11-21T05:15:06;99389.10;;;7.40;100.00
38806;BME280;25635;51.146;17.162;2023-11-21T05:17:39;99391.89;;;7.38;100.00
38806;BME280;25635;51.146;17.162;2023-11-21T05:20:13;99391.92;;;7.36;100.00
38806;BME280;25635;51.146;17.162;2023-11-21T05:22:40;99392.98;;;7.33;100.00
38806;BME280;25635;51.146;17.162;2023-11-21T05:25:08;99392.13;;;7.32;100.00
38806;BME280;25635;51.146;17.162;2023-11-21T05:27:34;99391.27;;;7.31;100.00
38806;BME280;25635;51.146;17.162;2023-11-21T05:30:02;99397.16;;;7.30;100.00
38806;BME280;25635;51.146;17.162;2023-11-21T05:32:31;99395.96;;;7.28;100.00
38806;BME280;25635;51.146;17.162;2023-11-21T05:34:57;99398.41;;;7.27;100.00
38806;BME280;25635;51.146;17.162;2023-11-21T05:37:24;99397.55;;;7.25;100.00
38806;BME280;25635;51.146;17.162;2023-11-21T05:39:56;99398.06;;;7.26;100.00
38806;BME280;25635;51.146;17.162;2023-11-21T05:42:22;99401.70;;;7.28;100.00
38806;BME280;25635;51.146;17.162;2023-11-21T05:44:49;99404.81;;;7.27;100.00
38806;BME280;25635;51.146;17.162;2023-11-21T05:47:15;99408.79;;;7.29;100.00
38806;BME280;25635;51.146;17.162;2023-11-21T05:49:41;99406.70;;;7.30;100.00
38806;BME280;25635;51.146;17.162;2023-11-21T05:52:07;99406.70;;;7.28;100.00
38806;BME280;25635;51.146;17.162;2023-11-21T05:54:33;99407.60;;;7.26;100.00
38806;BME280;25635;51.146;17.162;2023-11-21T05:56:59;99409.17;;;7.25;100.00
38806;BME280;25635;51.146;17.162;2023-11-21T05:59:26;99409.70;;;7.24;100.00
38806;BME280;25635;51.146;17.162;2023-11-21T06:01:52;99411.24;;;7.25;100.00
38806;BME280;25635;51.146;17.162;2023-11-21T06:04:19;99415.60;;;7.24;100.00
38806;BME280;25635;51.146;17.162;2023-11-21T06:06:51;99414.55;;;7.24;100.00
38806;BME280;25635;51.146;17.162;2023-11-21T06:09:18;99418.02;;;7.23;100.00
38806;BME280;25635;51.146;17.162;2023-11-21T06:11:44;99424.61;;;7.24;100.00
38806;BME280;25635;51.146;17.162;2023-11-21T06:14:10;99426.86;;;7.24;100.00
38806;BME280;25635;51.146;17.162;2023-11-21T06:16:36;99430.48;;;7.27;100.00
38806;BME280;25635;51.146;17.162;2023-11-21T06:19:02;99438.80;;;7.28;100.00
38806;BME280;25635;51.146;17.162;2023-11-21T06:21:29;99434.47;;;7.28;100.00
38806;BME280;25635;51.146;17.162;2023-11-21T06:23:55;99438.95;;;7.29;100.00
38806;BME280;25635;51.146;17.162;2023-11-21T06:26:22;99442.95;;;7.29;100.00
38806;BME280;25635;51.146;17.162;2023-11-21T06:28:50;99446.73;;;7.31;100.00
38806;BME280;25635;51.146;17.162;2023-11-21T06:31:17;99450.23;;;7.31;100.00
38806;BME280;25635;51.146;17.162;2023-11-21T06:33:43;99456.08;;;7.36;100.00
38806;BME280;25635;51.146;17.162;2023-11-21T06:36:09;99456.77;;;7.37;100.00
38806;BME280;25635;51.146;17.162;2023-11-21T06:38:37;99461.27;;;7.39;100.00
38806;BME280;25635;51.146;17.162;2023-11-21T06:41:04;99459.17;;;7.38;100.00
38806;BME280;25635;51.146;17.162;2023-11-21T06:43:30;99458.67;;;7.38;100.00
38806;BME280;25635;51.146;17.162;2023-11-21T06:45:59;99462.83;;;7.40;100.00
38806;BME280;25635;51.146;17.162;2023-11-21T06:48:25;99466.61;;;7.42;100.00
38806;BME280;25635;51.146;17.162;2023-11-21T06:50:51;99473.37;;;7.44;100.00
38806;BME280;25635;51.146;17.162;2023-11-21T06:53:18;99472.31;;;7.47;100.00
38806;BME280;25635;51.146;17.162;2023-11-21T06:55:44;99479.91;;;7.51;100.00
38806;BME280;25635;51.146;17.162;2023-11-21T06:58:10;99481.12;;;7.53;100.00
38806;BME280;25635;51.146;17.162;2023-11-21T07:00:36;99477.30;;;7.55;100.00
38806;BME280;25635;51.146;17.162;2023-11-21T07:03:02;99477.44;;;7.57;100.00
38806;BME280;25635;51.146;17.162;2023-11-21T07:05:29;99473.60;;;7.59;100.00
38806;BME280;25635;51.146;17.162;2023-11-21T07:07:55;99474.13;;;7.58;100.00
38806;BME280;25635;51.146;17.162;2023-11-21T07:10:21;99474.31;;;7.59;100.00
38806;BME280;25635;51.146;17.162;2023-11-21T07:12:48;99479.70;;;7.58;100.00
38806;BME280;25635;51.146;17.162;2023-11-21T07:15:14;99477.27;;;7.56;100.00
38806;BME280;25635;51.146;17.162;2023-11-21T07:17:40;99479.37;;;7.56;100.00
38806;BME280;25635;51.146;17.162;2023-11-21T07:20:07;99481.79;;;7.55;100.00
38806;BME280;25635;51.146;17.162;2023-11-21T07:22:34;99485.45;;;7.54;100.00
38806;BME280;25635;51.146;17.162;2023-11-21T07:25:00;99485.98;;;7.54;100.00
38806;BME280;25635;51.146;17.162;2023-11-21T07:27:26;99489.09;;;7.55;100.00
38806;BME280;25635;51.146;17.162;2023-11-21T07:29:52;99488.75;;;7.55;100.00
38806;BME280;25635;51.146;17.162;2023-11-21T07:32:18;99491.17;;;7.54;100.00
38806;BME280;25635;51.146;17.162;2023-11-21T07:34:45;99491.33;;;7.55;100.00
38806;BME280;25635;51.146;17.162;2023-11-21T07:37:11;99493.07;;;7.55;100.00
38806;BME280;25635;51.146;17.162;2023-11-21T07:39:37;99499.50;;;7.54;100.00
38806;BME280;25635;51.146;17.162;2023-11-21T07:42:03;99499.67;;;7.53;100.00
38806;BME280;25635;51.146;17.162;2023-11-21T07:44:32;99501.92;;;7.55;100.00
38806;BME280;25635;51.146;17.162;2023-11-21T07:46:59;99502.25;;;7.58;100.00
38806;BME280;25635;51.146;17.162;2023-11-21T07:49:25;99500.33;;;7.60;100.00
38806;BME280;25635;51.146;17.162;2023-11-21T07:51:52;99501.72;;;7.60;100.00
38806;BME280;25635;51.146;17.162;2023-11-21T07:54:19;99502.76;;;7.60;100.00
38806;BME280;25635;51.146;17.162;2023-11-21T07:56:45;99502.21;;;7.62;100.00
38806;BME280;25635;51.146;17.162;2023-11-21T07:59:11;99506.52;;;7.65;100.00
38806;BME280;25635;51.146;17.162;2023-11-21T08:01:38;99508.61;;;7.66;100.00
38806;BME280;25635;51.146;17.162;2023-11-21T08:04:06;99510.17;;;7.65;100.00
38806;BME280;25635;51.146;17.162;2023-11-21T08:06:32;99509.30;;;7.66;100.00
38806;BME280;25635;51.146;17.162;2023-11-21T08:08:59;99515.02;;;7.68;100.00
38806;BME280;25635;51.146;17.162;2023-11-21T08:11:25;99515.17;;;7.70;100.00
38806;BME280;25635;51.146;17.162;2023-11-21T08:13:57;99515.33;;;7.73;100.00
38806;BME280;25635;51.146;17.162;2023-11-21T08:16:25;99515.15;;;7.71;100.00
38806;BME280;25635;51.146;17.162;2023-11-21T08:18:51;99516.55;;;7.73;100.00
38806;BME280;25635;51.146;17.162;2023-11-21T08:21:17;99514.80;;;7.74;100.00
38806;BME280;25635;51.146;17.162;2023-11-21T08:23:45;99518.11;;;7.72;100.00
38806;BME280;25635;51.146;17.162;2023-11-21T08:26:11;99519.14;;;7.74;100.00
38806;BME280;25635;51.146;17.162;2023-11-21T08:28:37;99523.65;;;7.73;100.00
38806;BME280;25635;51.146;17.162;2023-11-21T08:31:03;99523.30;;;7.74;100.00
38806;BME280;25635;51.146;17.162;2023-11-21T08:33:30;99529.71;;;7.76;100.00
38806;BME280;25635;51.146;17.162;2023-11-21T08:35:56;99533.00;;;7.75;100.00
38806;BME280;25635;51.146;17.162;2023-11-21T08:38:22;99533.36;;;7.74;100.00
38806;BME280;25635;51.146;17.162;2023-11-21T08:40:48;99534.59;;;7.74;100.00
38806;BME280;25635;51.146;17.162;2023-11-21T08:43:15;99536.14;;;7.74;100.00
38806;BME280;25635;51.146;17.162;2023-11-21T08:45:42;99536.30;;;7.75;100.00
38806;BME280;25635;51.146;17.162;2023-11-21T08:48:08;99535.77;;;7.78;100.00
38806;BME280;25635;51.146;17.162;2023-11-21T08:50:34;99539.23;;;7.80;100.00
38806;BME280;25635;51.146;17.162;2023-11-21T08:53:01;99538.84;;;7.85;100.00
38806;BME280;25635;51.146;17.162;2023-11-21T08:55:27;99536.72;;;7.89;100.00
38806;BME280;25635;51.146;17.162;2023-11-21T08:57:54;99535.27;;;7.96;100.00
38806;BME280;25635;51.146;17.162;2023-11-21T09:00:20;99534.39;;;7.99;100.00
38806;BME280;25635;51.146;17.162;2023-11-21T09:02:47;99535.55;;;8.05;100.00
38806;BME280;25635;51.146;17.162;2023-11-21T09:05:14;99533.41;;;8.12;100.00
38806;BME280;25635;51.146;17.162;2023-11-21T09:07:41;99536.12;;;8.19;100.00
38806;BME280;25635;51.146;17.162;2023-11-21T09:10:08;99537.46;;;8.26;100.00
38806;BME280;25635;51.146;17.162;2023-11-21T09:12:35;99536.05;;;8.29;100.00
38806;BME280;25635;51.146;17.162;2023-11-21T09:15:07;99540.14;;;8.36;100.00
38806;BME280;25635;51.146;17.162;2023-11-21T09:17:33;99539.40;;;8.45;100.00
38806;BME280;25635;51.146;17.162;2023-11-21T09:20:00;99538.81;;;8.51;100.00
38806;BME280;25635;51.146;17.162;2023-11-21T09:22:26;99544.18;;;8.52;100.00
38806;BME280;25635;51.146;17.162;2023-11-21T09:24:56;99546.08;;;8.55;100.00
38806;BME280;25635;51.146;17.162;2023-11-21T09:27:23;99545.20;;;8.56;100.00
38806;BME280;25635;51.146;17.162;2023-11-21T09:29:51;99546.23;;;8.58;100.00
38806;BME280;25635;51.146;17.162;2023-11-21T09:32:18;99547.77;;;8.58;100.00
38806;BME280;25635;51.146;17.162;2023-11-21T09:34:48;99547.92;;;8.61;100.00
38806;BME280;25635;51.146;17.162;2023-11-21T09:37:14;99549.81;;;8.63;100.00
38806;BME280;25635;51.146;17.162;2023-11-21T09:39:40;99550.98;;;8.68;100.00
38806;BME280;25635;51.146;17.162;2023-11-21T09:42:36;99554.23;;;8.73;100.00
38806;BME280;25635;51.146;17.162;2023-11-21T09:45:03;99553.67;;;8.77;100.00
38806;BME280;25635;51.146;17.162;2023-11-21T09:47:35;99554.86;;;8.79;100.00
38806;BME280;25635;51.146;17.162;2023-11-21T09:50:05;99556.77;;;8.79;100.00
38806;BME280;25635;51.146;17.162;2023-11-21T09:52:41;99556.83;;;8.74;100.00
38806;BME280;25635;51.146;17.162;2023-11-21T09:55:14;99560.78;;;8.78;100.00
38806;BME280;25635;51.146;17.162;2023-11-21T09:57:44;99559.35;;;8.81;100.00
38806;BME280;25635;51.146;17.162;2023-11-21T10:00:11;99561.41;;;8.84;100.00
38806;BME280;25635;51.146;17.162;2023-11-21T10:02:39;99564.71;;;8.84;100.00
38806;BME280;25635;51.146;17.162;2023-11-21T10:05:06;99567.89;;;8.79;100.00
38806;BME280;25635;51.146;17.162;2023-11-21T10:07:36;99569.88;;;8.72;100.00
38806;BME280;25635;51.146;17.162;2023-11-21T10:10:02;99570.61;;;8.68;100.00
38806;BME280;25635;51.146;17.162;2023-11-21T10:12:30;99572.27;;;8.59;100.00
38806;BME280;25635;51.146;17.162;2023-11-21T10:14:58;99575.08;;;8.55;100.00
38806;BME280;25635;51.146;17.162;2023-11-21T10:17:28;99578.75;;;8.54;100.00
38806;BME280;25635;51.146;17.162;2023-11-21T10:19:57;99580.89;;;8.46;100.00
38806;BME280;25635;51.146;17.162;2023-11-21T10:22:24;99586.05;;;8.29;99.10
38806;BME280;25635;51.146;17.162;2023-11-21T10:24:50;99585.32;;;8.13;98.99
38806;BME280;25635;51.146;17.162;2023-11-21T10:27:17;99591.66;;;8.02;99.18
38806;BME280;25635;51.146;17.162;2023-11-21T10:29:43;99583.90;;;7.95;99.76
38806;BME280;25635;51.146;17.162;2023-11-21T10:32:11;99590.16;;;7.90;99.82
38806;BME280;25635;51.146;17.162;2023-11-21T10:34:37;99591.43;;;7.84;99.30
38806;BME280;25635;51.146;17.162;2023-11-21T10:37:13;99595.14;;;7.73;99.33
38806;BME280;25635;51.146;17.162;2023-11-21T10:39:39;99595.00;;;7.70;99.52
38806;BME280;25635;51.146;17.162;2023-11-21T10:42:31;99604.61;;;7.57;98.25
38806;BME280;25635;51.146;17.162;2023-11-21T10:44:58;99601.57;;;7.39;97.96
38806;BME280;25635;51.146;17.162;2023-11-21T10:47:25;99606.66;;;7.23;97.78
38806;BME280;25635;51.146;17.162;2023-11-21T10:49:52;99606.00;;;7.14;98.72
38806;BME280;25635;51.146;17.162;2023-11-21T10:52:19;99608.98;;;7.05;98.69
38806;BME280;25635;51.146;17.162;2023-11-21T10:54:45;99607.95;;;6.98;99.08
38806;BME280;25635;51.146;17.162;2023-11-21T10:57:15;99610.75;;;6.96;99.60
38806;BME280;25635;51.146;17.162;2023-11-21T10:59:46;99611.79;;;6.97;99.70
38806;BME280;25635;51.146;17.162;2023-11-21T11:02:26;99615.26;;;6.91;99.53
38806;BME280;25635;51.146;17.162;2023-11-21T11:04:54;99620.98;;;6.86;99.03
38806;BME280;25635;51.146;17.162;2023-11-21T11:07:26;99620.83;;;6.82;99.69
38806;BME280;25635;51.146;17.162;2023-11-21T11:09:54;99620.15;;;6.79;99.52
38806;BME280;25635;51.146;17.162;2023-11-21T11:12:21;99618.94;;;6.75;99.63
38806;BME280;25635;51.146;17.162;2023-11-21T11:14:48;99621.38;;;6.68;99.19
38806;BME280;25635;51.146;17.162;2023-11-21T11:17:14;99619.81;;;6.59;99.20
38806;BME280;25635;51.146;17.162;2023-11-21T11:19:42;99620.52;;;6.47;98.76
38806;BME280;25635;51.146;17.162;2023-11-21T11:22:24;99621.39;;;6.37;99.07
38806;BME280;25635;51.146;17.162;2023-11-21T11:27:44;99629.54;;;6.26;99.94
38806;BME280;25635;51.146;17.162;2023-11-21T11:30:41;99631.27;;;6.24;99.68
38806;BME280;25635;51.146;17.162;2023-11-21T11:33:19;99638.00;;;6.16;99.05
38806;BME280;25635;51.146;17.162;2023-11-21T11:38:34;99642.84;;;6.04;98.91
38806;BME280;25635;51.146;17.162;2023-11-21T11:41:06;99645.77;;;5.99;99.47
38806;BME280;25635;51.146;17.162;2023-11-21T11:43:32;99650.78;;;5.99;99.53
38806;BME280;25635;51.146;17.162;2023-11-21T11:46:03;99652.14;;;5.94;99.14
38806;BME280;25635;51.146;17.162;2023-11-21T11:48:29;99652.30;;;5.88;99.10
38806;BME280;25635;51.146;17.162;2023-11-21T11:51:07;99658.17;;;5.87;99.46
38806;BME280;25635;51.146;17.162;2023-11-21T11:53:37;99656.78;;;5.84;99.16
38806;BME280;25635;51.146;17.162;2023-11-21T11:58:56;99661.41;;;5.73;98.35
38806;BME280;25635;51.146;17.162;2023-11-21T12:01:24;99659.13;;;5.64;98.84
38806;BME280;25635;51.146;17.162;2023-11-21T12:07:00;99670.33;;;5.50;98.91
38806;BME280;25635;51.146;17.162;2023-11-21T12:09:30;99672.41;;;5.48;99.63
38806;BME280;25635;51.146;17.162;2023-11-21T12:11:57;99675.17;;;5.49;99.38
38806;BME280;25635;51.146;17.162;2023-11-21T12:14:23;99673.91;;;5.39;98.59
38806;BME280;25635;51.146;17.162;2023-11-21T12:16:50;99675.23;;;5.29;98.37
38806;BME280;25635;51.146;17.162;2023-11-21T12:19:17;99678.34;;;5.25;99.00
38806;BME280;25635;51.146;17.162;2023-11-21T12:21:44;99679.55;;;5.25;98.99
38806;BME280;25635;51.146;17.162;2023-11-21T12:24:10;99676.71;;;5.14;98.23
38806;BME280;25635;51.146;17.162;2023-11-21T12:26:43;99682.06;;;5.11;98.89
38806;BME280;25635;51.146;17.162;2023-11-21T12:29:09;99682.73;;;5.06;98.67
38806;BME280;25635;51.146;17.162;2023-11-21T12:31:36;99686.83;;;5.01;98.54
38806;BME280;25635;51.146;17.162;2023-11-21T12:34:03;99688.71;;;4.97;98.86
38806;BME280;25635;51.146;17.162;2023-11-21T12:36:30;99692.86;;;4.97;99.16
38806;BME280;25635;51.146;17.162;2023-11-21T12:38:56;99694.59;;;4.96;98.51
38806;BME280;25635;51.146;17.162;2023-11-21T12:41:22;99702.45;;;4.87;98.05
38806;BME280;25635;51.146;17.162;2023-11-21T12:43:49;99703.09;;;4.78;98.01
38806;BME280;25635;51.146;17.162;2023-11-21T12:46:15;99708.56;;;4.72;97.95
38806;BME280;25635;51.146;17.162;2023-11-21T12:48:44;99714.37;;;4.62;97.38
38806;BME280;25635;51.146;17.162;2023-11-21T12:51:12;99721.70;;;4.51;97.41
38806;BME280;25635;51.146;17.162;2023-11-21T12:53:41;99724.42;;;4.47;97.98
38806;BME280;25635;51.146;17.162;2023-11-21T12:56:12;99726.23;;;4.37;97.47
38806;BME280;25635;51.146;17.162;2023-11-21T12:58:39;99729.06;;;4.28;97.45
38806;BME280;25635;51.146;17.162;2023-11-21T13:01:06;99734.50;;;4.20;97.53
38806;BME280;25635;51.146;17.162;2023-11-21T13:03:38;99743.43;;;4.15;97.79
38806;BME280;25635;51.146;17.162;2023-11-21T13:06:05;99746.32;;;4.10;97.87